Primera, Texas
Current Conditions -  °F | °C
As of 5:52 PM on Monday 20 Oct 2014 (Local Time) from KHRL Reporting Station
Overcast Overcast  
Wind Chill: 81°   Ceiling: 4800
Heat Index: 85°   Visibility: 10mi
Dew Point: 71°   Wind: 13mph
Humidity: 72%   Direction: 70°ENE
Pressure: 29.89"   Gusts: NA
Location:  26.2089°N, 97.6849°W
Report Text: KHRL 202252Z 07011KT 10SM BKN048 OVC060 27/22 A2989 RMK AO2 SLP121 T02720217
Loading
Personal Weather Stations






























Interactive Weather Map New forecast layout! Learn more

10-Day Weather Forecast

Advertisements
Track Severe Weather on mobile